createdAt,value
2023-05-01T00:01:06.204Z,1.27
2023-05-01T00:03:33.898Z,1.20
2023-05-01T00:06:04.403Z,1.25
2023-05-01T00:08:32.664Z,1.93
2023-05-01T00:11:04.612Z,1.27
2023-05-01T00:13:32.506Z,1.10
2023-05-01T00:15:59.798Z,1.48
2023-05-01T00:18:27.288Z,1.25
2023-05-01T00:20:54.784Z,1.20
2023-05-01T00:23:22.103Z,1.50
2023-05-01T00:25:49.605Z,1.23
2023-05-01T00:28:19.085Z,1.30
2023-05-01T00:30:47.212Z,1.38
2023-05-01T00:33:14.696Z,1.08
2023-05-01T00:35:45.275Z,1.13
2023-05-01T00:38:12.795Z,1.27
2023-05-01T00:40:45.065Z,1.48
2023-05-01T00:43:13.686Z,1.20
2023-05-01T00:45:44.560Z,1.30
2023-05-01T00:48:12.426Z,1.35
2023-05-01T00:50:40.089Z,1.20
2023-05-01T00:53:07.704Z,1.40
2023-05-01T00:55:36.055Z,1.30
2023-05-01T00:58:04.081Z,1.05
2023-05-01T01:00:31.392Z,1.20
2023-05-01T01:02:59.066Z,1.30
2023-05-01T01:05:29.922Z,1.33
2023-05-01T01:08:11.580Z,1.57
2023-05-01T01:11:18.104Z,1.20
2023-05-01T01:14:07.225Z,0.95
2023-05-01T01:17:09.969Z,1.10
2023-05-01T01:19:40.594Z,1.20
2023-05-01T01:22:18.572Z,1.23
2023-05-01T01:25:06.573Z,1.37
2023-05-01T01:28:04.145Z,1.40
2023-05-01T01:30:40.898Z,1.38
2023-05-01T01:33:42.178Z,1.20
2023-05-01T01:36:16.654Z,1.20
2023-05-01T01:39:13.208Z,0.85
2023-05-01T01:41:42.793Z,1.20
2023-05-01T01:44:20.748Z,1.17
2023-05-01T01:46:50.671Z,1.23
2023-05-01T01:49:23.375Z,1.33
2023-05-01T01:51:53.139Z,1.40
2023-05-01T01:54:28.462Z,1.30
2023-05-01T01:56:59.600Z,1.30
2023-05-01T01:59:29.098Z,1.10
2023-05-01T02:01:57.770Z,1.40
2023-05-01T02:04:27.853Z,2.03
2023-05-01T02:06:59.971Z,1.20
2023-05-01T02:09:29.809Z,1.30
2023-05-01T02:11:58.728Z,1.10
2023-05-01T02:14:27.858Z,1.13
2023-05-01T02:16:57.536Z,1.30
2023-05-01T02:19:26.571Z,1.07
2023-05-01T02:21:57.377Z,1.20
2023-05-01T02:24:26.807Z,1.20
2023-05-01T02:27:02.125Z,1.30
2023-05-01T02:29:29.543Z,1.30
2023-05-01T02:31:57.311Z,1.13
2023-05-01T02:34:24.801Z,1.43
2023-05-01T02:36:52.266Z,1.40
2023-05-01T02:39:19.693Z,1.17
2023-05-01T02:41:48.801Z,1.23
2023-05-01T02:44:16.928Z,1.40
2023-05-01T02:46:47.228Z,1.25
2023-05-01T02:49:16.840Z,1.37
2023-05-01T02:51:46.536Z,1.50
2023-05-01T02:54:14.404Z,1.17
2023-05-01T02:56:42.338Z,1.40
2023-05-01T02:59:09.663Z,1.40
2023-05-01T03:01:37.005Z,1.20
2023-05-01T03:04:04.695Z,1.20
2023-05-01T03:06:32.005Z,1.23
2023-05-01T03:08:59.541Z,1.30
2023-05-01T03:11:27.079Z,1.10
2023-05-01T03:13:54.454Z,1.13
2023-05-01T03:16:22.023Z,1.10
2023-05-01T03:18:49.415Z,1.30
2023-05-01T03:21:16.761Z,1.20
2023-05-01T03:23:44.538Z,1.10
2023-05-01T03:26:11.915Z,1.30
2023-05-01T03:28:39.262Z,1.40
2023-05-01T03:31:06.913Z,1.23
2023-05-01T03:33:34.287Z,0.93
2023-05-01T03:36:04.086Z,1.45
2023-05-01T03:38:32.772Z,1.20
2023-05-01T03:41:00.288Z,1.43
2023-05-01T03:43:27.787Z,1.33
2023-05-01T03:45:55.277Z,1.33
2023-05-01T03:48:22.662Z,1.50
2023-05-01T03:50:49.949Z,1.17
2023-05-01T03:53:17.687Z,1.10
2023-05-01T03:55:45.159Z,1.20
2023-05-01T03:58:12.964Z,1.33
2023-05-01T04:00:40.445Z,1.20
2023-05-01T04:03:08.247Z,1.30
2023-05-01T04:05:36.128Z,1.50
2023-05-01T04:08:04.520Z,1.20
2023-05-01T04:10:31.986Z,1.00
2023-05-01T04:12:59.637Z,1.08
2023-05-01T04:15:27.098Z,1.15
2023-05-01T04:17:56.864Z,1.17
2023-05-01T04:20:24.365Z,1.00
2023-05-01T04:22:52.073Z,1.08
2023-05-01T04:25:19.437Z,1.05
2023-05-01T04:27:47.297Z,1.20
2023-05-01T04:30:14.906Z,0.68
2023-05-01T04:32:42.274Z,1.00
2023-05-01T04:35:12.352Z,0.35
2023-05-01T04:37:39.730Z,1.05
2023-05-01T04:40:09.731Z,0.80
2023-05-01T04:42:38.751Z,1.05
2023-05-01T04:45:06.899Z,1.10
2023-05-01T04:47:34.487Z,1.10
2023-05-01T04:50:02.187Z,1.08
2023-05-01T04:52:29.542Z,0.70
2023-05-01T04:54:58.041Z,1.08
2023-05-01T04:57:25.509Z,0.70
2023-05-01T04:59:52.918Z,1.10
2023-05-01T05:02:20.395Z,1.05
2023-05-01T05:04:47.952Z,0.47
2023-05-01T05:07:15.447Z,0.98
2023-05-01T05:09:42.825Z,1.33
2023-05-01T05:12:10.200Z,0.90
2023-05-01T05:14:37.559Z,0.95
2023-05-01T05:17:05.037Z,1.20
2023-05-01T05:19:33.105Z,0.90
2023-05-01T05:22:03.404Z,0.90
2023-05-01T05:24:32.679Z,0.90
2023-05-01T05:27:00.165Z,1.10
2023-05-01T05:29:27.581Z,0.98
2023-05-01T05:31:57.163Z,1.10
2023-05-01T05:34:24.926Z,1.05
2023-05-01T05:36:52.463Z,1.00
2023-05-01T05:39:22.467Z,1.00
2023-05-01T05:41:50.224Z,0.95
2023-05-01T05:44:17.625Z,0.80
2023-05-01T05:46:44.968Z,0.70
2023-05-01T05:49:12.419Z,0.60
2023-05-01T05:51:39.873Z,0.90
2023-05-01T05:54:07.528Z,0.80
2023-05-01T05:56:35.130Z,0.65
2023-05-01T05:59:04.623Z,0.60
2023-05-01T06:01:32.630Z,0.60
2023-05-01T06:04:00.070Z,0.52
2023-05-01T06:06:27.856Z,0.57
2023-05-01T06:08:55.386Z,0.30
2023-05-01T06:11:23.110Z,0.30
2023-05-01T06:13:50.697Z,0.70
2023-05-01T06:16:18.191Z,0.70
2023-05-01T06:18:46.022Z,0.50
2023-05-01T06:21:13.523Z,0.50
2023-05-01T06:23:40.812Z,0.65
2023-05-01T06:26:08.152Z,0.77
2023-05-01T06:28:35.584Z,0.40
2023-05-01T06:31:03.262Z,0.40
2023-05-01T06:33:31.176Z,0.68
2023-05-01T06:36:01.326Z,0.60
2023-05-01T06:38:28.823Z,0.70
2023-05-01T06:40:56.723Z,0.70
2023-05-01T06:43:28.207Z,0.52
2023-05-01T06:45:56.047Z,0.70
2023-05-01T06:48:23.552Z,0.73
2023-05-01T06:50:51.117Z,0.60
2023-05-01T06:53:18.466Z,0.75
2023-05-01T06:55:45.962Z,0.63
2023-05-01T06:58:23.626Z,0.60
2023-05-01T07:00:54.015Z,0.50
2023-05-01T07:03:21.859Z,0.50
2023-05-01T07:05:49.411Z,0.60
2023-05-01T07:08:16.906Z,0.70
2023-05-01T07:10:44.262Z,0.63
2023-05-01T07:13:12.054Z,0.70
2023-05-01T07:15:39.346Z,0.65
2023-05-01T07:18:06.841Z,0.60
2023-05-01T07:20:35.032Z,0.70
2023-05-01T07:23:03.503Z,0.50
2023-05-01T07:25:31.993Z,0.70
2023-05-01T07:28:01.059Z,0.52
2023-05-01T07:30:30.618Z,0.60
2023-05-01T07:32:58.241Z,0.50
2023-05-01T07:35:26.029Z,0.40
2023-05-01T07:37:53.568Z,0.50
2023-05-01T07:40:21.135Z,0.40
2023-05-01T07:42:48.536Z,0.40
2023-05-01T07:45:16.094Z,0.32
2023-05-01T07:47:43.794Z,0.40
2023-05-01T07:50:12.389Z,0.40
2023-05-01T07:52:40.066Z,0.50
2023-05-01T07:55:08.955Z,0.52
2023-05-01T07:57:36.511Z,0.50
2023-05-01T08:00:04.394Z,0.47
2023-05-01T08:02:31.981Z,0.55
2023-05-01T08:04:59.784Z,0.47
2023-05-01T08:07:27.303Z,0.40
2023-05-01T08:09:56.363Z,0.47
2023-05-01T08:12:25.080Z,0.30
2023-05-01T08:14:52.538Z,0.30
2023-05-01T08:17:20.445Z,0.60
2023-05-01T08:19:48.222Z,0.57
2023-05-01T08:22:15.583Z,0.40
2023-05-01T08:24:43.017Z,0.30
2023-05-01T08:27:10.423Z,0.60
2023-05-01T08:29:37.965Z,0.60
2023-05-01T08:32:05.611Z,0.35
2023-05-01T08:34:33.601Z,0.30
2023-05-01T08:37:01.125Z,0.40
2023-05-01T08:39:31.412Z,0.50
2023-05-01T08:41:59.578Z,0.40
2023-05-01T08:44:28.095Z,0.60
2023-05-01T08:47:17.996Z,0.40
2023-05-01T08:49:46.831Z,0.30
2023-05-01T08:52:15.404Z,0.25
2023-05-01T08:54:44.699Z,0.30
2023-05-01T08:57:13.261Z,0.30
2023-05-01T08:59:41.408Z,0.20
2023-05-01T09:02:10.607Z,0.30
2023-05-01T09:04:40.044Z,0.50
2023-05-01T09:07:10.136Z,0.50
2023-05-01T09:09:37.909Z,0.40
2023-05-01T09:12:23.465Z,0.30
2023-05-01T09:14:53.254Z,0.50
2023-05-01T09:17:25.146Z,0.35
2023-05-01T09:19:53.485Z,0.50
2023-05-01T09:22:21.468Z,0.30
2023-05-01T09:24:49.021Z,0.30
2023-05-01T09:27:16.583Z,0.30
2023-05-01T09:29:45.958Z,0.40
2023-05-01T09:32:25.691Z,0.50
2023-05-01T09:34:54.960Z,0.40
2023-05-01T09:37:30.922Z,0.35
2023-05-01T09:40:05.144Z,0.57
2023-05-01T09:42:33.714Z,0.57
2023-05-01T09:45:04.179Z,0.45
2023-05-01T09:47:32.087Z,0.60
2023-05-01T09:50:00.239Z,0.60
2023-05-01T09:52:31.514Z,0.63
2023-05-01T09:55:18.874Z,0.60
2023-05-01T09:57:49.796Z,0.40
2023-05-01T10:00:18.549Z,0.50
2023-05-01T10:02:47.823Z,0.63
2023-05-01T10:05:15.952Z,0.30
2023-05-01T10:08:01.253Z,0.60
2023-05-01T10:10:28.933Z,0.60
2023-05-01T10:12:56.617Z,0.80
2023-05-01T10:15:36.251Z,0.60
2023-05-01T10:18:05.348Z,0.40
2023-05-01T10:20:32.799Z,0.60
2023-05-01T10:23:01.834Z,0.50
2023-05-01T10:25:30.303Z,0.50
2023-05-01T10:27:58.100Z,0.52
2023-05-01T10:30:30.727Z,0.63
2023-05-01T10:32:59.689Z,0.50
2023-05-01T10:35:32.243Z,0.60
2023-05-01T10:38:02.409Z,0.70
2023-05-01T10:40:49.876Z,0.60
2023-05-01T10:43:27.864Z,0.65
2023-05-01T10:46:21.530Z,0.60
2023-05-01T10:48:51.687Z,0.50
2023-05-01T10:51:22.403Z,0.50
2023-05-01T10:54:13.489Z,0.47
2023-05-01T10:56:43.253Z,0.60
2023-05-01T10:59:12.108Z,0.50
2023-05-01T11:01:40.718Z,0.60
2023-05-01T11:04:28.362Z,0.50
2023-05-01T11:07:08.281Z,0.55
2023-05-01T11:09:59.133Z,0.77
2023-05-01T11:12:45.097Z,0.70
2023-05-01T11:15:14.328Z,0.47
2023-05-01T11:17:41.827Z,0.60
2023-05-01T11:20:26.238Z,0.65
2023-05-01T11:22:55.816Z,0.63
2023-05-01T11:25:25.520Z,0.68
2023-05-01T11:27:55.931Z,0.60
2023-05-01T11:30:23.410Z,0.60
2023-05-01T11:32:52.080Z,0.60
2023-05-01T11:35:30.083Z,0.60
2023-05-01T11:37:57.579Z,0.60
2023-05-01T11:40:26.099Z,0.70
2023-05-01T11:43:07.176Z,0.60
2023-05-01T11:45:36.392Z,0.57
2023-05-01T11:48:05.236Z,0.65
2023-05-01T11:50:35.851Z,0.60
2023-05-01T11:53:11.909Z,1.73
2023-05-01T11:55:40.444Z,1.95
2023-05-01T11:58:08.064Z,0.70
2023-05-01T12:00:39.725Z,0.60
2023-05-01T12:03:12.602Z,0.70
2023-05-01T12:05:43.019Z,0.45
2023-05-01T12:08:21.349Z,0.55
2023-05-01T12:10:52.693Z,0.80
2023-05-01T12:13:20.887Z,0.70
2023-05-01T12:15:52.941Z,0.95
2023-05-01T12:18:24.372Z,0.73
2023-05-01T12:20:54.555Z,0.75
2023-05-01T12:23:36.152Z,0.82
2023-05-01T12:26:19.397Z,0.80
2023-05-01T12:29:04.513Z,0.90
2023-05-01T12:31:32.831Z,1.00
2023-05-01T12:34:07.703Z,1.00
2023-05-01T12:36:36.979Z,1.00
2023-05-01T12:39:06.832Z,1.20
2023-05-01T12:41:48.537Z,1.30
2023-05-01T12:44:27.444Z,1.80
2023-05-01T12:47:02.570Z,1.55
2023-05-01T12:49:31.931Z,1.40
2023-05-01T12:52:03.847Z,1.65
2023-05-01T12:54:39.000Z,1.40
2023-05-01T12:57:16.960Z,1.55
2023-05-01T12:59:47.350Z,1.70
2023-05-01T13:02:17.312Z,1.60
2023-05-01T13:04:45.497Z,1.42
2023-05-01T13:07:15.278Z,1.95
2023-05-01T13:09:53.737Z,1.30
2023-05-01T13:12:22.161Z,1.40
2023-05-01T13:14:50.122Z,1.60
2023-05-01T13:17:23.619Z,1.40
2023-05-01T13:19:55.930Z,1.23
2023-05-01T13:22:37.383Z,1.23
2023-05-01T13:25:20.289Z,1.40
2023-05-01T13:27:49.816Z,1.33
2023-05-01T13:30:22.392Z,1.20
2023-05-01T13:32:50.053Z,1.00
2023-05-01T13:35:25.319Z,1.27
2023-05-01T13:37:53.970Z,1.73
2023-05-01T13:40:22.387Z,1.20
2023-05-01T13:42:52.937Z,1.42
2023-05-01T13:45:21.456Z,1.85
2023-05-01T13:47:50.848Z,1.48
2023-05-01T13:50:18.421Z,1.17
2023-05-01T13:52:46.450Z,1.20
2023-05-01T13:55:14.943Z,1.40
2023-05-01T13:57:43.267Z,1.27
2023-05-01T14:00:17.957Z,1.13
2023-05-01T14:02:48.993Z,1.67
2023-05-01T14:05:20.606Z,1.13
2023-05-01T14:07:55.611Z,1.00
2023-05-01T14:10:26.446Z,1.20
2023-05-01T14:13:00.398Z,1.02
2023-05-01T14:15:28.944Z,1.00
2023-05-01T14:17:56.434Z,1.02
2023-05-01T14:20:25.785Z,1.05
2023-05-01T14:22:53.637Z,1.08
2023-05-01T14:25:24.559Z,1.20
2023-05-01T14:27:53.802Z,1.00
2023-05-01T14:30:30.529Z,1.02
2023-05-01T14:32:58.126Z,1.08
2023-05-01T14:35:26.181Z,1.02
2023-05-01T14:37:53.856Z,0.77
2023-05-01T14:40:27.560Z,0.90
2023-05-01T14:42:57.654Z,0.80
2023-05-01T14:45:25.123Z,0.80
2023-05-01T14:47:52.465Z,0.93
2023-05-01T14:50:22.468Z,1.00
2023-05-01T14:52:57.972Z,0.80
2023-05-01T14:55:32.205Z,0.80
2023-05-01T14:57:59.602Z,0.90
2023-05-01T15:00:28.012Z,0.88
2023-05-01T15:02:55.937Z,0.80
2023-05-01T15:05:26.201Z,0.88
2023-05-01T15:07:57.077Z,0.95
2023-05-01T15:10:24.428Z,1.13
2023-05-01T15:12:52.324Z,1.15
2023-05-01T15:15:20.061Z,0.90
2023-05-01T15:17:47.525Z,0.90
2023-05-01T15:22:57.786Z,0.80
2023-05-01T15:25:25.227Z,0.80
2023-05-01T15:27:52.658Z,0.80
2023-05-01T15:30:20.281Z,0.90
2023-05-01T15:32:48.665Z,0.95
2023-05-01T15:35:16.973Z,0.80
2023-05-01T15:37:46.511Z,0.73
2023-05-01T15:40:13.866Z,0.80
2023-05-01T15:42:41.191Z,0.93
2023-05-01T15:45:09.934Z,0.90
2023-05-01T15:47:37.510Z,0.85
2023-05-01T15:50:08.269Z,1.20
2023-05-01T15:52:36.140Z,0.75
2023-05-01T15:55:03.872Z,0.70
2023-05-01T15:57:32.810Z,0.93
2023-05-01T16:00:00.884Z,1.10
2023-05-01T16:02:32.650Z,0.90
2023-05-01T16:05:00.778Z,1.02
2023-05-01T16:07:31.656Z,1.13
2023-05-01T16:09:59.458Z,1.20
2023-05-01T16:12:31.433Z,1.27
2023-05-01T16:15:02.679Z,1.30
2023-05-01T16:17:33.468Z,1.13
2023-05-01T16:20:02.608Z,1.52
2023-05-01T16:22:33.052Z,1.02
2023-05-01T16:25:01.455Z,1.60
2023-05-01T16:27:28.808Z,1.63
2023-05-01T16:29:56.437Z,1.80
2023-05-01T16:32:24.488Z,2.10
2023-05-01T16:34:52.011Z,2.03
2023-05-01T16:37:21.393Z,1.60
2023-05-01T16:39:48.860Z,1.67
2023-05-01T16:42:16.229Z,1.98
2023-05-01T16:44:44.072Z,2.17
2023-05-01T16:47:12.967Z,2.55
2023-05-01T16:49:43.368Z,2.05
2023-05-01T16:52:14.343Z,2.25
2023-05-01T16:54:41.738Z,2.40
2023-05-01T16:57:09.306Z,2.10
2023-05-01T16:59:37.892Z,2.30
2023-05-01T17:02:06.724Z,2.00
2023-05-01T17:04:36.564Z,2.20
2023-05-01T17:07:04.463Z,1.75
2023-05-01T17:09:32.450Z,1.67
2023-05-01T17:11:59.766Z,2.28
2023-05-01T17:14:28.889Z,1.90
2023-05-01T17:16:59.775Z,2.03
2023-05-01T17:19:27.097Z,1.70
2023-05-01T17:21:54.698Z,2.00
2023-05-01T17:24:22.688Z,2.28
2023-05-01T17:26:50.160Z,1.90
2023-05-01T17:29:17.471Z,1.90
2023-05-01T17:31:44.835Z,2.10
2023-05-01T17:34:12.308Z,2.15
2023-05-01T17:36:39.681Z,2.28
2023-05-01T17:39:07.159Z,1.80
2023-05-01T17:41:34.475Z,2.00
2023-05-01T17:44:01.965Z,2.00
2023-05-01T17:46:29.489Z,1.80
2023-05-01T17:48:57.325Z,1.70
2023-05-01T17:51:27.277Z,1.90
2023-05-01T17:53:54.625Z,1.98
2023-05-01T17:56:22.197Z,2.28
2023-05-01T17:58:49.691Z,1.88
2023-05-01T18:01:17.170Z,2.35
2023-05-01T18:03:45.079Z,2.40
2023-05-01T18:06:12.857Z,2.30
2023-05-01T18:08:40.933Z,2.15
2023-05-01T18:11:08.530Z,2.10
2023-05-01T18:13:39.994Z,2.20
2023-05-01T18:16:07.697Z,2.50
2023-05-01T18:18:35.044Z,2.10
2023-05-01T18:21:02.867Z,2.28
2023-05-01T18:23:30.281Z,2.15
2023-05-01T18:25:58.662Z,2.58
2023-05-01T18:28:26.242Z,2.33
2023-05-01T18:30:53.597Z,2.17
2023-05-01T18:33:21.731Z,2.40
2023-05-01T18:35:49.240Z,2.70
2023-05-01T18:38:16.659Z,3.00
2023-05-01T18:40:43.992Z,2.70
2023-05-01T18:43:12.392Z,2.40
2023-05-01T18:45:40.329Z,2.80
2023-05-01T18:48:08.552Z,3.00
2023-05-01T18:50:36.156Z,2.67
2023-05-01T18:53:03.520Z,3.40
2023-05-01T18:55:31.259Z,2.90
2023-05-01T18:57:58.736Z,2.85
2023-05-01T19:00:26.660Z,2.63
2023-05-01T19:02:54.090Z,3.13
2023-05-01T19:05:22.973Z,3.13
2023-05-01T19:07:50.664Z,2.78
2023-05-01T19:10:18.357Z,3.10
2023-05-01T19:12:45.946Z,3.30
2023-05-01T19:15:13.765Z,2.90
2023-05-01T19:17:41.123Z,2.90
2023-05-01T19:20:09.128Z,3.00
2023-05-01T19:22:36.747Z,2.58
2023-05-01T19:25:04.288Z,2.97
2023-05-01T19:27:31.996Z,2.97
2023-05-01T19:30:01.353Z,3.03
2023-05-01T19:32:29.630Z,2.95
2023-05-01T19:34:57.133Z,2.75
2023-05-01T19:37:24.628Z,2.80
2023-05-01T19:39:52.078Z,2.80
2023-05-01T19:42:19.571Z,2.50
2023-05-01T19:44:47.260Z,2.67
2023-05-01T19:47:14.702Z,2.20
2023-05-01T19:49:42.105Z,2.15
2023-05-01T19:52:10.587Z,2.00
2023-05-01T19:54:37.962Z,2.17
2023-05-01T19:57:05.466Z,2.33
2023-05-01T19:59:33.056Z,1.85
2023-05-01T20:02:01.454Z,2.22
2023-05-01T20:04:29.441Z,2.30
2023-05-01T20:06:57.024Z,2.50
2023-05-01T20:09:25.642Z,2.25
2023-05-01T20:11:53.055Z,2.47
2023-05-01T20:14:20.457Z,2.28
2023-05-01T20:16:49.178Z,2.00
2023-05-01T20:19:17.940Z,2.10
2023-05-01T20:21:45.568Z,2.13
2023-05-01T20:24:12.853Z,1.92
2023-05-01T20:26:40.233Z,2.05
2023-05-01T20:29:09.190Z,2.38
2023-05-01T20:31:36.608Z,2.33
2023-05-01T20:34:03.962Z,2.05
2023-05-01T20:36:31.337Z,2.40
2023-05-01T20:38:58.722Z,2.30
2023-05-01T20:41:26.363Z,2.25
2023-05-01T20:43:54.141Z,2.10
2023-05-01T20:46:23.052Z,2.35
2023-05-01T20:48:50.572Z,2.08
2023-05-01T20:51:18.269Z,2.65
2023-05-01T20:53:45.810Z,3.05
2023-05-01T20:56:13.395Z,2.60
2023-05-01T20:58:41.057Z,2.70
2023-05-01T21:01:08.497Z,3.00
2023-05-01T21:03:36.083Z,2.90
2023-05-01T21:06:03.787Z,2.72
2023-05-01T21:08:31.698Z,3.10
2023-05-01T21:11:00.797Z,3.10
2023-05-01T21:13:28.542Z,2.80
2023-05-01T21:15:56.304Z,3.20
2023-05-01T21:18:23.767Z,3.05
2023-05-01T21:20:51.890Z,3.40
2023-05-01T21:23:19.334Z,3.72
2023-05-01T21:25:46.666Z,3.88
2023-05-01T21:28:15.064Z,3.80
2023-05-01T21:30:42.463Z,3.85
2023-05-01T21:33:13.618Z,3.80
2023-05-01T21:35:43.034Z,4.30
2023-05-01T21:38:10.891Z,3.50
2023-05-01T21:40:41.414Z,3.88
2023-05-01T21:43:09.513Z,4.35
2023-05-01T21:45:40.570Z,3.90
2023-05-01T21:48:09.396Z,3.72
2023-05-01T21:50:40.260Z,4.18
2023-05-01T21:53:07.735Z,4.90
2023-05-01T21:55:35.314Z,4.50
2023-05-01T21:58:02.646Z,4.88
2023-05-01T22:00:30.377Z,5.47
2023-05-01T22:02:58.037Z,4.82
2023-05-01T22:05:25.564Z,4.93
2023-05-01T22:07:54.088Z,4.88
2023-05-01T22:10:21.562Z,5.80
2023-05-01T22:12:49.722Z,4.60
2023-05-01T22:15:17.075Z,4.63
2023-05-01T22:17:45.478Z,5.60
2023-05-01T22:20:13.172Z,4.78
2023-05-01T22:22:41.726Z,5.63
2023-05-01T22:25:10.417Z,5.25
2023-05-01T22:27:38.607Z,4.55
2023-05-01T22:30:06.673Z,4.80
2023-05-01T22:32:34.207Z,2.88
2023-05-01T22:35:01.770Z,4.07
2023-05-01T22:37:29.109Z,5.10
2023-05-01T22:39:56.522Z,5.35
2023-05-01T22:42:23.835Z,3.42
2023-05-01T22:44:51.181Z,5.28
2023-05-01T22:47:18.762Z,6.00
2023-05-01T22:49:46.061Z,5.30
2023-05-01T22:52:13.476Z,5.70
2023-05-01T22:54:41.234Z,5.07
2023-05-01T22:57:09.004Z,4.78
2023-05-01T22:59:37.760Z,4.85
2023-05-01T23:02:05.676Z,6.57
2023-05-01T23:04:33.505Z,7.47
2023-05-01T23:07:01.052Z,5.75
2023-05-01T23:09:32.207Z,6.47
2023-05-01T23:11:59.633Z,7.22
2023-05-01T23:14:27.105Z,6.60
2023-05-01T23:16:54.663Z,4.72
2023-05-01T23:19:24.480Z,6.20
2023-05-01T23:22:09.056Z,6.57
2023-05-01T23:24:47.731Z,7.28
2023-05-01T23:27:20.005Z,6.13
2023-05-01T23:29:56.670Z,5.57
2023-05-01T23:32:26.937Z,6.15
2023-05-01T23:34:55.984Z,7.15
2023-05-01T23:37:23.543Z,7.38
2023-05-01T23:39:53.600Z,4.57
2023-05-01T23:42:22.690Z,3.83
2023-05-01T23:44:50.646Z,6.95
2023-05-01T23:47:18.141Z,6.75
2023-05-01T23:49:45.600Z,4.97
2023-05-01T23:52:13.043Z,5.68
2023-05-01T23:54:40.556Z,8.25
2023-05-01T23:57:07.996Z,6.33
2023-05-01T23:59:35.990Z,8.15
